Time;durP1;ratioP1;P1;durP2;ratioP2;P2;SDS_P1;SDS_P2;PMS_P1;PMS_P2;Temp;Humidity;BMP_temperature;BMP_pressure;BME280_temperature;BME280_humidity;BME280_pressure;Samples;Min_cycle;Max_cycle;Signal;HPM_P1;HPM_P2
2021/12/19 00:09:32;;;;;;;4.40;4.00;;;6.70;89.10;;;;;;4998013;28;20476;-46
2021/12/19 00:11:59;;;;;;;4.73;4.23;;;6.70;89.10;;;;;;5002650;28;20470;-46
2021/12/19 00:14:26;;;;;;;5.20;4.77;;;6.80;89.10;;;;;;4988151;28;20696;-46
2021/12/19 00:16:54;;;;;;;4.30;4.00;;;6.70;89.20;;;;;;4983488;28;20853;-46
2021/12/19 00:19:21;;;;;;;5.40;4.50;;;6.80;88.90;;;;;;4997510;28;20523;-46
2021/12/19 00:21:50;;;;;;;4.10;3.70;;;6.80;88.70;;;;;;4996490;28;20585;-47
2021/12/19 00:24:17;;;;;;;5.50;4.30;;;6.80;88.40;;;;;;4996893;28;20484;-46
2021/12/19 00:26:44;;;;;;;3.90;3.60;;;6.80;88.50;;;;;;4985941;28;20456;-46
2021/12/19 00:29:11;;;;;;;4.60;4.10;;;6.70;88.70;;;;;;4987539;28;20965;-46
2021/12/19 00:31:38;;;;;;;4.23;3.50;;;6.70;88.90;;;;;;4991310;28;20457;-46
2021/12/19 00:34:05;;;;;;;5.77;4.60;;;6.70;88.80;;;;;;5002733;28;20458;-46
2021/12/19 00:36:32;;;;;;;4.53;4.13;;;6.80;88.60;;;;;;5001359;28;20444;-46
2021/12/19 00:38:59;;;;;;;4.40;3.93;;;6.80;88.30;;;;;;4973561;28;20458;-46
2021/12/19 00:41:26;;;;;;;7.10;4.73;;;6.70;88.50;;;;;;4985950;28;20527;-46
2021/12/19 00:44:06;;;;;;;4.47;4.03;;;6.70;88.80;;;;;;4998930;28;20452;-46
2021/12/19 00:46:43;;;;;;;4.03;3.43;;;6.70;88.90;;;;;;4998783;28;20463;-46
2021/12/19 00:49:11;;;;;;;4.43;4.00;;;6.80;88.40;;;;;;4996175;28;20474;-46
2021/12/19 00:51:39;;;;;;;4.63;4.23;;;6.80;88.30;;;;;;5000055;28;20468;-46
2021/12/19 00:54:09;;;;;;;4.47;4.07;;;6.90;87.80;;;;;;4999822;28;20460;-46
2021/12/19 00:56:41;;;;;;;3.87;3.47;;;6.90;87.80;;;;;;4993305;28;20468;-46
2021/12/19 00:59:10;;;;;;;4.67;4.03;;;6.80;87.90;;;;;;4989546;28;20523;-46
2021/12/19 01:01:43;;;;;;;5.03;4.53;;;6.80;87.80;;;;;;4987122;28;21040;-46
2021/12/19 01:04:14;;;;;;;6.07;4.43;;;6.80;87.90;;;;;;4992899;28;20476;-46
2021/12/19 01:06:42;;;;;;;4.77;4.20;;;6.80;88.20;;;;;;5001521;28;20460;-46
2021/12/19 01:09:10;;;;;;;4.57;4.10;;;6.80;88.10;;;;;;4981066;28;20479;-46
2021/12/19 01:11:37;;;;;;;6.57;4.90;;;6.80;88.00;;;;;;4989053;28;20467;-46
2021/12/19 01:14:06;;;;;;;4.60;4.10;;;6.80;88.20;;;;;;4967905;28;20551;-46
2021/12/19 01:16:33;;;;;;;5.17;4.67;;;6.80;88.00;;;;;;4999026;28;20471;-46
2021/12/19 01:19:00;;;;;;;4.40;3.80;;;6.80;88.10;;;;;;5001802;28;20472;-46
2021/12/19 01:21:26;;;;;;;4.93;4.47;;;6.70;88.10;;;;;;4985014;28;20496;-46
2021/12/19 01:23:53;;;;;;;4.53;4.13;;;6.70;88.30;;;;;;5004594;28;20466;-46
2021/12/19 01:26:20;;;;;;;5.63;4.67;;;6.70;88.40;;;;;;5004814;28;20479;-46
2021/12/19 01:28:47;;;;;;;5.00;3.60;;;6.80;88.20;;;;;;5002978;28;20445;-46
2021/12/19 01:31:14;;;;;;;5.77;4.50;;;6.80;88.20;;;;;;5002428;28;20961;-46
2021/12/19 01:33:41;;;;;;;4.70;4.23;;;6.80;88.30;;;;;;5005282;28;20460;-46
2021/12/19 01:36:08;;;;;;;5.13;4.63;;;6.80;88.30;;;;;;5005379;28;20496;-46
2021/12/19 01:38:35;;;;;;;4.83;4.40;;;6.80;88.30;;;;;;4990255;28;20448;-46
2021/12/19 01:41:02;;;;;;;4.50;4.10;;;6.80;88.30;;;;;;5000163;28;20452;-46
2021/12/19 01:43:31;;;;;;;5.60;4.57;;;6.80;88.30;;;;;;4988648;28;20839;-46
2021/12/19 01:45:58;;;;;;;6.57;5.83;;;6.80;88.30;;;;;;5003814;28;20444;-46
2021/12/19 01:48:25;;;;;;;5.67;4.47;;;6.80;88.40;;;;;;5003870;28;20980;-46
2021/12/19 01:50:52;;;;;;;5.93;5.33;;;6.80;88.30;;;;;;5004160;28;20452;-46
2021/12/19 01:53:19;;;;;;;5.47;4.57;;;6.90;88.00;;;;;;4999939;28;20460;-46
2021/12/19 01:55:47;;;;;;;5.10;4.30;;;6.90;87.80;;;;;;5004398;28;20462;-46
2021/12/19 01:58:16;;;;;;;4.83;4.33;;;6.90;87.50;;;;;;4983519;28;20478;-46
2021/12/19 02:00:50;;;;;;;4.50;3.97;;;6.90;87.30;;;;;;4990039;28;20453;-46
2021/12/19 02:03:18;;;;;;;4.80;4.40;;;6.90;87.30;;;;;;4988514;28;20487;-46
2021/12/19 02:05:45;;;;;;;4.73;4.23;;;6.90;87.10;;;;;;5001729;28;20449;-46
2021/12/19 02:08:13;;;;;;;5.10;4.53;;;6.90;87.10;;;;;;4989212;28;20460;-46
2021/12/19 02:10:41;;;;;;;5.57;4.63;;;6.90;87.30;;;;;;4984924;28;20918;-46
2021/12/19 02:13:11;;;;;;;4.33;3.93;;;6.90;87.20;;;;;;4971480;28;20460;-46
2021/12/19 02:15:39;;;;;;;4.37;3.97;;;6.90;86.90;;;;;;4995062;28;20488;-46
2021/12/19 02:18:13;;;;;;;4.23;3.93;;;6.90;86.80;;;;;;4986628;28;20759;-46
2021/12/19 02:20:44;;;;;;;4.07;3.77;;;6.90;87.00;;;;;;4969478;28;20503;-46
2021/12/19 02:23:11;;;;;;;5.63;3.97;;;6.90;86.30;;;;;;5003072;28;20500;-46
2021/12/19 02:25:39;;;;;;;3.73;3.33;;;6.90;86.30;;;;;;5000145;28;20455;-46
2021/12/19 02:28:07;;;;;;;4.77;4.37;;;6.90;86.20;;;;;;4985534;28;20453;-46
2021/12/19 02:30:34;;;;;;;4.40;3.97;;;6.90;86.30;;;;;;5003254;28;20459;-46
2021/12/19 02:33:02;;;;;;;6.17;4.40;;;6.80;86.50;;;;;;5004709;28;20547;-46
2021/12/19 02:35:33;;;;;;;4.07;3.77;;;6.70;86.90;;;;;;4988571;28;20823;-46
2021/12/19 02:48:50;;;;;;;4.23;3.83;;;6.80;86.40;;;;;;5003147;28;20485;-46
2021/12/19 02:51:17;;;;;;;7.67;4.37;;;6.80;86.20;;;;;;4998823;28;20814;-46
2021/12/19 02:53:46;;;;;;;5.83;4.53;;;6.80;86.00;;;;;;5001717;28;20529;-46
2021/12/19 02:56:13;;;;;;;5.60;4.50;;;6.80;86.10;;;;;;4992326;28;20460;-46
2021/12/19 02:58:42;;;;;;;4.07;3.67;;;6.80;85.80;;;;;;4987764;28;20472;-46
2021/12/19 03:01:14;;;;;;;5.47;4.97;;;6.80;85.40;;;;;;4986083;28;20468;-46
2021/12/19 03:03:41;;;;;;;5.53;4.97;;;6.80;85.10;;;;;;5000659;28;20491;-46
2021/12/19 03:06:08;;;;;;;4.80;4.17;;;6.80;85.10;;;;;;5003564;28;20452;-46
2021/12/19 03:08:36;;;;;;;4.93;4.43;;;6.80;85.30;;;;;;4988784;28;20475;-46
2021/12/19 03:19:19;;;;;;;5.97;4.93;;;6.70;85.50;;;;;;4986653;28;20468;-49
2021/12/19 03:21:45;;;;;;;5.60;4.70;;;6.70;85.60;;;;;;4998838;28;20488;-50
2021/12/19 03:24:12;;;;;;;6.03;4.57;;;6.70;85.90;;;;;;5001414;28;20501;-49
2021/12/19 03:26:39;;;;;;;5.80;5.00;;;6.80;85.60;;;;;;5001676;28;20465;-49
2021/12/19 03:29:06;;;;;;;7.23;5.10;;;6.80;85.30;;;;;;4984751;28;20910;-49
2021/12/19 03:31:33;;;;;;;5.43;4.20;;;6.70;85.50;;;;;;4980959;28;20809;-49
2021/12/19 03:33:59;;;;;;;6.43;5.10;;;6.70;85.50;;;;;;5003271;28;21688;-49
2021/12/19 03:36:28;;;;;;;6.57;4.67;;;6.70;85.70;;;;;;5001387;28;20972;-46
2021/12/19 03:38:58;;;;;;;5.83;4.77;;;6.70;86.00;;;;;;5002824;28;20460;-46
2021/12/19 03:41:33;;;;;;;7.63;5.93;;;6.70;85.80;;;;;;5001670;28;20977;-46
2021/12/19 03:44:03;;;;;;;7.33;5.27;;;6.70;85.70;;;;;;4981412;28;20745;-46
2021/12/19 03:46:30;;;;;;;6.37;5.47;;;6.70;85.70;;;;;;4982402;28;20835;-46
2021/12/19 03:48:57;;;;;;;7.80;6.20;;;6.70;85.70;;;;;;5002591;28;20962;-47
2021/12/19 03:51:24;;;;;;;7.67;6.10;;;6.70;85.60;;;;;;4999835;28;20464;-46
2021/12/19 03:53:51;;;;;;;9.00;6.53;;;6.70;85.80;;;;;;4986596;28;20472;-46
2021/12/19 03:56:18;;;;;;;6.63;5.70;;;6.70;85.80;;;;;;4988088;28;20460;-46
2021/12/19 03:58:45;;;;;;;8.93;6.90;;;6.70;85.90;;;;;;5000535;28;20489;-46
2021/12/19 04:01:12;;;;;;;8.10;6.10;;;6.70;85.60;;;;;;4999306;28;20465;-46
2021/12/19 04:03:40;;;;;;;10.40;7.63;;;6.70;85.60;;;;;;5002952;28;20493;-46
2021/12/19 04:06:07;;;;;;;7.77;6.30;;;6.80;85.30;;;;;;4996975;28;20520;-46
2021/12/19 04:08:34;;;;;;;7.87;6.50;;;6.80;85.30;;;;;;4983403;28;20468;-46
2021/12/19 04:11:01;;;;;;;9.57;7.00;;;6.70;85.50;;;;;;5005190;28;20911;-46
2021/12/19 04:13:28;;;;;;;8.20;6.33;;;6.70;85.60;;;;;;5001746;28;20456;-46
2021/12/19 04:15:55;;;;;;;10.27;6.97;;;6.70;85.70;;;;;;4987425;28;20468;-46
2021/12/19 04:18:21;;;;;;;10.63;7.17;;;6.70;85.60;;;;;;4997974;28;20460;-46
2021/12/19 04:20:49;;;;;;;9.77;7.30;;;6.70;85.70;;;;;;5002140;28;20456;-46
2021/12/19 04:23:16;;;;;;;7.00;6.07;;;6.70;85.80;;;;;;5000662;28;21138;-46
2021/12/19 04:25:43;;;;;;;9.37;7.13;;;6.70;85.80;;;;;;5000718;28;20456;-46
2021/12/19 04:28:10;;;;;;;9.07;6.80;;;6.70;85.70;;;;;;5002360;28;20449;-46
2021/12/19 04:30:37;;;;;;;9.27;6.93;;;6.80;85.40;;;;;;5000219;28;20832;-47
2021/12/19 04:33:08;;;;;;;8.23;6.10;;;6.80;85.40;;;;;;5003417;28;20452;-46
2021/12/19 04:35:39;;;;;;;9.33;6.67;;;6.80;85.40;;;;;;4986837;28;20803;-46
2021/12/19 04:41:35;;;;;;;;;;;;;;;;;;;;;
2021/12/19 04:57:37;;;;;;;10.50;6.77;;;6.70;85.70;;;;;;4998810;28;20468;-46
2021/12/19 05:00:10;;;;;;;8.67;6.70;;;6.80;85.50;;;;;;4996486;28;20447;-46
2021/12/19 05:16:12;;;;;;;7.80;5.43;;;6.80;85.30;;;;;;4999543;28;20924;-46
2021/12/19 05:18:41;;;;;;;8.83;5.70;;;6.80;85.40;;;;;;5000041;28;20473;-46
2021/12/19 05:21:18;;;;;;;9.70;5.57;;;6.70;85.50;;;;;;4999238;28;20515;-46
2021/12/19 05:26:14;;;;;;;7.93;6.70;;;6.80;85.60;;;;;;4980829;28;20461;-46
2021/12/19 05:28:41;;;;;;;7.97;6.00;;;6.80;85.30;;;;;;5001008;28;20461;-46
2021/12/19 05:31:08;;;;;;;8.30;5.93;;;6.80;85.40;;;;;;4999301;28;20460;-46
2021/12/19 05:33:35;;;;;;;8.40;6.90;;;6.80;85.50;;;;;;4999262;28;20463;-46
2021/12/19 05:46:52;;;;;;;9.80;6.30;;;6.80;85.40;;;;;;4999501;28;20452;-46
2021/12/19 05:49:19;;;;;;;8.77;6.07;;;6.80;85.30;;;;;;5001731;28;20468;-46
2021/12/19 05:51:46;;;;;;;10.97;6.77;;;6.80;85.30;;;;;;4969715;28;20448;-46
2021/12/19 05:54:13;;;;;;;8.67;6.40;;;6.90;85.20;;;;;;4996367;28;20453;-46
2021/12/19 05:56:41;;;;;;;10.60;7.10;;;6.80;85.30;;;;;;4996776;28;20461;-46
2021/12/19 05:59:08;;;;;;;9.00;7.10;;;6.80;85.50;;;;;;4999336;28;20990;-47
2021/12/19 06:01:38;;;;;;;7.80;5.90;;;6.80;85.50;;;;;;4980279;28;20536;-46
2021/12/19 06:04:05;;;;;;;10.07;6.97;;;6.90;85.20;;;;;;5002675;28;20492;-46
2021/12/19 06:06:32;;;;;;;10.23;6.70;;;6.90;85.10;;;;;;4987302;28;20833;-46
2021/12/19 06:08:59;;;;;;;12.03;8.20;;;6.80;85.30;;;;;;5000607;28;20993;-46
2021/12/19 06:11:25;;;;;;;11.10;6.77;;;6.80;85.50;;;;;;5003341;28;20460;-46
2021/12/19 06:13:52;;;;;;;9.30;6.77;;;6.80;85.60;;;;;;5003935;28;20452;-46
2021/12/19 06:16:19;;;;;;;12.57;8.00;;;6.80;85.70;;;;;;4989374;28;20456;-46
2021/12/19 06:18:47;;;;;;;12.83;7.90;;;6.80;85.70;;;;;;5004950;28;21303;-46
2021/12/19 06:21:13;;;;;;;12.40;7.60;;;6.80;85.90;;;;;;5003312;28;20459;-46
2021/12/19 06:23:40;;;;;;;10.87;7.30;;;6.80;86.00;;;;;;4991562;28;21035;-46
2021/12/19 06:26:10;;;;;;;12.80;7.23;;;6.80;86.00;;;;;;5003944;28;20532;-46
2021/12/19 06:28:37;;;;;;;11.03;7.30;;;6.90;85.90;;;;;;5004682;28;20464;-46
2021/12/19 06:31:05;;;;;;;14.80;8.50;;;6.90;85.70;;;;;;5006275;28;20452;-46
2021/12/19 06:33:31;;;;;;;11.87;7.43;;;6.80;85.80;;;;;;5003775;28;20467;-46
2021/12/19 06:35:58;;;;;;;11.70;7.13;;;6.80;85.90;;;;;;4999938;28;20510;-46
2021/12/19 06:38:25;;;;;;;11.83;6.70;;;6.80;85.90;;;;;;5001541;28;20466;-46
2021/12/19 06:40:53;;;;;;;10.93;7.93;;;6.80;86.00;;;;;;5002594;28;20973;-46
2021/12/19 06:43:20;;;;;;;12.20;7.00;;;6.80;85.90;;;;;;5000876;28;20909;-46
2021/12/19 06:45:47;;;;;;;10.30;7.33;;;6.80;86.00;;;;;;5002893;28;20448;-46
2021/12/19 06:48:14;;;;;;;11.70;7.43;;;6.80;86.10;;;;;;5001269;28;20472;-46
2021/12/19 06:50:41;;;;;;;10.77;7.00;;;6.80;86.20;;;;;;4981049;28;21001;-46
2021/12/19 06:53:07;;;;;;;9.90;7.77;;;6.90;86.20;;;;;;5000268;28;20478;-46
2021/12/19 06:55:34;;;;;;;12.57;8.40;;;6.90;85.80;;;;;;5000986;28;20461;-46
2021/12/19 06:58:01;;;;;;;13.37;8.57;;;6.90;85.80;;;;;;4986356;28;20480;-46
2021/12/19 07:00:28;;;;;;;11.40;8.27;;;6.90;85.70;;;;;;5003161;28;20946;-46
2021/12/19 07:02:55;;;;;;;13.63;8.10;;;6.90;85.90;;;;;;5001123;28;20496;-46
2021/12/19 07:05:23;;;;;;;15.73;8.57;;;6.90;85.90;;;;;;4987208;28;20916;-46
2021/12/19 07:07:49;;;;;;;16.60;9.37;;;6.90;85.70;;;;;;5000446;28;20492;-46
2021/12/19 07:10:17;;;;;;;12.90;8.33;;;6.90;85.80;;;;;;5003308;28;20455;-46
2021/12/19 07:12:44;;;;;;;12.97;8.70;;;6.90;85.90;;;;;;4986510;28;20967;-46
2021/12/19 07:15:11;;;;;;;16.10;9.53;;;6.90;86.10;;;;;;4989295;28;20472;-46
2021/12/19 07:17:37;;;;;;;16.53;10.13;;;6.90;85.60;;;;;;5002067;28;20457;-46
2021/12/19 07:20:06;;;;;;;18.57;10.57;;;6.90;85.70;;;;;;5000531;28;20470;-46
2021/12/19 07:22:32;;;;;;;18.53;11.10;;;7.00;85.60;;;;;;5001514;28;20468;-46
2021/12/19 07:24:59;;;;;;;14.53;9.60;;;6.90;85.80;;;;;;5001876;28;20461;-46
2021/12/19 07:27:26;;;;;;;17.97;10.67;;;6.90;85.80;;;;;;4999021;28;20457;-46
2021/12/19 07:29:56;;;;;;;14.53;10.40;;;7.00;85.70;;;;;;4992060;28;20456;-46
2021/12/19 07:32:23;;;;;;;19.03;12.70;;;7.00;85.70;;;;;;4999409;28;20842;-46
2021/12/19 07:35:12;;;;;;;16.30;10.07;;;7.00;85.80;;;;;;5001800;28;20463;-46
2021/12/19 07:37:40;;;;;;;15.53;9.60;;;7.00;85.50;;;;;;5001219;28;20479;-46
2021/12/19 07:40:19;;;;;;;19.30;11.03;;;7.10;85.40;;;;;;4986335;28;20460;-47
2021/12/19 07:42:46;;;;;;;18.77;11.70;;;7.10;85.30;;;;;;5002272;28;20532;-47
2021/12/19 07:45:15;;;;;;;16.80;10.47;;;7.00;85.50;;;;;;4998905;28;20877;-47
2021/12/19 07:47:45;;;;;;;16.57;9.10;;;7.00;85.70;;;;;;5004517;28;20471;-47
2021/12/19 07:50:14;;;;;;;18.47;11.00;;;7.00;85.70;;;;;;5002027;28;20467;-47
2021/12/19 07:52:41;;;;;;;16.83;10.80;;;7.00;85.80;;;;;;5001338;28;20449;-47
2021/12/19 07:55:08;;;;;;;18.73;11.10;;;7.00;85.80;;;;;;4989356;28;21072;-47
2021/12/19 07:57:36;;;;;;;17.43;11.87;;;7.00;85.70;;;;;;4989725;28;20460;-47
2021/12/19 08:00:08;;;;;;;18.90;11.53;;;7.10;85.70;;;;;;5000253;28;20484;-47
2021/12/19 08:02:35;;;;;;;20.13;11.00;;;7.10;85.60;;;;;;4999145;28;20452;-47
2021/12/19 08:05:02;;;;;;;14.63;11.00;;;7.10;85.50;;;;;;4989336;28;20455;-47
2021/12/19 08:07:30;;;;;;;17.87;11.50;;;7.10;85.50;;;;;;5001629;28;20452;-47
2021/12/19 08:12:40;;;;;;;17.70;11.57;;;7.20;85.20;;;;;;5004748;28;20494;-47
2021/12/19 08:15:08;;;;;;;22.13;13.33;;;7.20;85.20;;;;;;5000640;28;20800;-47
2021/12/19 08:17:35;;;;;;;18.33;12.37;;;7.20;85.00;;;;;;4997153;28;20460;-47
2021/12/19 08:20:05;;;;;;;26.30;16.70;;;7.20;85.00;;;;;;5002422;28;20456;-47
2021/12/19 08:22:33;;;;;;;25.67;14.40;;;7.20;85.10;;;;;;4995924;28;20473;-47
2021/12/19 08:25:01;;;;;;;24.03;14.90;;;7.20;85.30;;;;;;4983961;28;20495;-47
2021/12/19 08:27:27;;;;;;;19.30;12.93;;;7.20;85.10;;;;;;4986856;28;20461;-47
2021/12/19 08:29:55;;;;;;;19.40;11.50;;;7.20;85.10;;;;;;5002708;28;20454;-47
2021/12/19 08:32:23;;;;;;;23.03;12.80;;;7.20;85.10;;;;;;4998805;28;20493;-47
2021/12/19 08:34:50;;;;;;;22.87;12.87;;;7.30;85.20;;;;;;4977771;28;21013;-47
2021/12/19 08:37:17;;;;;;;19.67;11.27;;;7.30;85.30;;;;;;4998293;28;20466;-47
2021/12/19 08:39:44;;;;;;;20.77;13.57;;;7.30;85.30;;;;;;4984987;28;20465;-47
2021/12/19 08:42:12;;;;;;;23.53;12.20;;;7.30;85.20;;;;;;4990959;28;20457;-47
2021/12/19 08:44:39;;;;;;;22.93;12.93;;;7.30;85.30;;;;;;4989307;28;20499;-47
2021/12/19 08:47:07;;;;;;;19.17;13.00;;;7.30;85.40;;;;;;4987899;28;20461;-46
2021/12/19 08:49:34;;;;;;;18.47;11.43;;;7.30;85.50;;;;;;5004069;28;20456;-46
2021/12/19 08:52:03;;;;;;;19.10;12.50;;;7.40;85.20;;;;;;5001817;28;20452;-47
2021/12/19 08:54:30;;;;;;;22.47;12.90;;;7.40;85.30;;;;;;5002459;28;20460;-46
2021/12/19 08:56:57;;;;;;;20.63;12.03;;;7.40;85.30;;;;;;4988689;28;20456;-46
2021/12/19 08:59:26;;;;;;;21.07;13.10;;;7.40;85.40;;;;;;5000824;28;21001;-47
2021/12/19 09:01:54;;;;;;;19.57;12.40;;;7.40;85.20;;;;;;5003342;28;20547;-46
2021/12/19 09:04:21;;;;;;;22.83;12.53;;;7.50;85.20;;;;;;5001505;28;20488;-46
2021/12/19 09:06:48;;;;;;;17.83;10.90;;;7.50;85.20;;;;;;5002456;28;20961;-46
2021/12/19 09:09:15;;;;;;;17.90;11.37;;;7.50;85.10;;;;;;4982871;28;20472;-46
2021/12/19 09:11:42;;;;;;;15.90;10.60;;;7.50;85.10;;;;;;5002713;28;20479;-47
2021/12/19 09:14:09;;;;;;;18.40;11.57;;;7.60;84.30;;;;;;4999514;28;21128;-47
2021/12/19 09:16:36;;;;;;;19.23;12.40;;;7.60;84.30;;;;;;5000754;28;20595;-46
2021/12/19 09:19:12;;;;;;;17.73;10.07;;;7.50;84.50;;;;;;4991552;28;21265;-46
2021/12/19 09:21:39;;;;;;;17.50;10.87;;;7.60;84.30;;;;;;4990324;28;20718;-47
2021/12/19 09:24:06;;;;;;;18.47;10.63;;;7.60;84.00;;;;;;4991185;28;20491;-47
2021/12/19 09:26:33;;;;;;;14.50;9.13;;;7.60;84.30;;;;;;5002415;28;20461;-46
2021/12/19 09:29:00;;;;;;;13.70;10.03;;;7.70;84.20;;;;;;5000768;28;20475;-47
2021/12/19 09:31:29;;;;;;;13.03;9.23;;;7.70;83.90;;;;;;5003557;28;20512;-46
2021/12/19 09:33:56;;;;;;;15.40;10.60;;;7.70;83.70;;;;;;4985525;28;20548;-46
2021/12/19 09:36:23;;;;;;;15.63;9.60;;;7.80;83.50;;;;;;5001255;28;20515;-46
2021/12/19 09:38:50;;;;;;;15.53;9.93;;;7.80;83.60;;;;;;4989081;28;20544;-46
2021/12/19 09:41:28;;;;;;;15.97;10.03;;;7.80;83.50;;;;;;5003858;28;20466;-46
2021/12/19 09:43:58;;;;;;;18.67;10.50;;;7.80;83.30;;;;;;4970418;28;20485;-47
2021/12/19 09:46:31;;;;;;;16.17;10.40;;;7.80;82.80;;;;;;4973166;28;20456;-46
2021/12/19 09:48:58;;;;;;;17.40;8.83;;;7.90;82.40;;;;;;4993111;28;20458;-46
2021/12/19 09:51:25;;;;;;;16.73;9.80;;;7.90;82.10;;;;;;5007380;28;20468;-46
2021/12/19 09:53:52;;;;;;;16.40;10.03;;;7.80;82.60;;;;;;4992441;28;20456;-46
2021/12/19 09:56:18;;;;;;;13.23;8.50;;;7.90;82.50;;;;;;4992188;28;20996;-46
2021/12/19 09:58:48;;;;;;;14.17;8.57;;;7.90;82.30;;;;;;4990010;28;20480;-46
2021/12/19 10:01:15;;;;;;;16.97;9.03;;;7.90;82.20;;;;;;5002072;28;20451;-46
2021/12/19 10:03:41;;;;;;;19.70;10.70;;;7.90;82.10;;;;;;5003735;28;20488;-46
2021/12/19 10:06:11;;;;;;;13.00;8.33;;;7.90;82.00;;;;;;5007495;28;20456;-46
2021/12/19 10:08:39;;;;;;;14.63;8.50;;;7.90;81.70;;;;;;5005326;28;20460;-46
2021/12/19 10:11:29;;;;;;;14.20;8.97;;;8.00;81.70;;;;;;5003426;28;20445;-46
2021/12/19 10:13:56;;;;;;;16.60;9.83;;;8.00;81.70;;;;;;5001548;28;20461;-46
2021/12/19 10:16:27;;;;;;;15.60;9.33;;;8.00;81.80;;;;;;5003607;28;20541;-46
2021/12/19 10:18:57;;;;;;;12.97;9.00;;;8.00;81.40;;;;;;4989529;28;20928;-46
2021/12/19 10:21:25;;;;;;;13.63;9.37;;;8.10;81.20;;;;;;4986134;28;20757;-46
2021/12/19 10:23:52;;;;;;;18.00;9.30;;;8.10;81.50;;;;;;4982698;28;20567;-47
2021/12/19 10:26:18;;;;;;;16.20;9.57;;;8.10;81.30;;;;;;5000019;28;20463;-47
2021/12/19 10:28:49;;;;;;;17.20;9.80;;;8.10;81.40;;;;;;5001881;28;20463;-47
2021/12/19 10:31:16;;;;;;;16.40;10.30;;;8.10;81.70;;;;;;5006472;28;20452;-47
2021/12/19 10:33:43;;;;;;;16.70;8.97;;;8.20;81.20;;;;;;5004135;28;20460;-47
2021/12/19 10:36:10;;;;;;;13.57;8.30;;;8.20;80.50;;;;;;5001798;28;20466;-47
2021/12/19 10:38:59;;;;;;;13.53;8.60;;;8.20;80.50;;;;;;5003572;28;20460;-47
2021/12/19 10:41:34;;;;;;;15.10;8.53;;;8.20;81.00;;;;;;5005189;28;20465;-47
2021/12/19 10:44:11;;;;;;;16.73;9.17;;;8.20;81.00;;;;;;4983984;28;20928;-47
2021/12/19 10:46:40;;;;;;;14.87;8.73;;;8.20;80.90;;;;;;5002100;28;20508;-47
2021/12/19 10:49:29;;;;;;;14.77;9.30;;;8.20;80.60;;;;;;4980767;28;20458;-47
2021/12/19 10:52:01;;;;;;;16.10;9.40;;;8.20;80.70;;;;;;5002582;28;20454;-47
2021/12/19 10:54:28;;;;;;;11.77;7.90;;;8.30;80.80;;;;;;5002195;28;20687;-47
2021/12/19 10:57:09;;;;;;;14.13;9.30;;;8.30;80.50;;;;;;5002222;28;20452;-47
2021/12/19 10:59:36;;;;;;;16.30;8.80;;;8.30;80.40;;;;;;4989767;28;20481;-47
2021/12/19 11:02:03;;;;;;;14.07;7.67;;;8.40;80.40;;;;;;5007550;28;20813;-47
2021/12/19 11:04:35;;;;;;;12.70;8.70;;;8.40;80.00;;;;;;5004261;28;21094;-47
2021/12/19 11:07:03;;;;;;;12.80;9.03;;;8.40;79.80;;;;;;5002179;28;20451;-47
2021/12/19 11:09:34;;;;;;;13.40;8.43;;;8.50;79.80;;;;;;5001066;28;20453;-47
2021/12/19 11:12:08;;;;;;;13.20;7.60;;;8.50;79.40;;;;;;4969546;28;20457;-47
2021/12/19 11:14:43;;;;;;;9.50;7.67;;;8.50;79.50;;;;;;5002539;28;20829;-47
2021/12/19 11:17:19;;;;;;;13.97;8.40;;;8.60;79.60;;;;;;4990397;28;20469;-47
2021/12/19 11:19:45;;;;;;;14.07;9.00;;;8.60;79.10;;;;;;5004700;28;20964;-47
2021/12/19 11:22:23;;;;;;;15.10;9.07;;;8.60;79.20;;;;;;5003594;28;20990;-47
2021/12/19 11:24:56;;;;;;;10.80;7.93;;;8.60;79.20;;;;;;5002012;28;21067;-47
2021/12/19 11:27:24;;;;;;;15.63;8.87;;;8.60;79.00;;;;;;4984734;28;20459;-47
2021/12/19 11:29:53;;;;;;;14.83;8.93;;;8.60;79.20;;;;;;5003459;28;20448;-47
2021/12/19 11:32:24;;;;;;;14.10;8.30;;;8.60;78.90;;;;;;5002876;28;20486;-47
2021/12/19 11:35:09;;;;;;;12.27;8.33;;;8.60;78.70;;;;;;5003701;28;20806;-47
2021/12/19 11:37:44;;;;;;;14.30;9.43;;;8.60;78.50;;;;;;4998147;28;20477;-47
2021/12/19 11:40:22;;;;;;;15.20;8.43;;;8.60;79.00;;;;;;4988808;28;20470;-47
2021/12/19 11:42:49;;;;;;;17.20;9.27;;;8.60;79.10;;;;;;4971740;28;20520;-47
2021/12/19 11:45:40;;;;;;;12.50;8.50;;;8.70;78.90;;;;;;5002699;28;23511;-47
2021/12/19 11:48:31;;;;;;;14.77;9.50;;;8.70;79.10;;;;;;5003756;28;20445;-47
2021/12/19 11:51:03;;;;;;;17.33;8.97;;;8.60;79.50;;;;;;5004592;28;20451;-47
2021/12/19 11:53:39;;;;;;;16.07;9.27;;;8.70;79.70;;;;;;4989622;28;20918;-47
2021/12/19 11:56:09;;;;;;;15.20;9.33;;;8.70;79.80;;;;;;5004473;28;20933;-47
2021/12/19 11:58:45;;;;;;;13.00;7.60;;;8.70;79.50;;;;;;5000714;28;20993;-47
2021/12/19 12:01:23;;;;;;;15.20;9.20;;;8.70;79.40;;;;;;5002602;28;20492;-47
2021/12/19 12:03:59;;;;;;;14.17;10.37;;;8.70;79.40;;;;;;5004847;28;20464;-47
2021/12/19 12:06:32;;;;;;;14.53;8.03;;;8.80;79.20;;;;;;4971051;28;20825;-47
2021/12/19 12:09:07;;;;;;;12.70;8.83;;;8.80;78.50;;;;;;4999156;28;20978;-47
2021/12/19 12:11:37;;;;;;;13.80;8.63;;;8.80;78.40;;;;;;5001145;28;20934;-47
2021/12/19 12:14:27;;;;;;;14.10;9.20;;;8.80;78.30;;;;;;4987903;28;20556;-47
2021/12/19 12:17:02;;;;;;;17.43;9.90;;;8.80;78.00;;;;;;4982564;28;20541;-47
2021/12/19 12:19:42;;;;;;;14.20;8.30;;;8.80;78.20;;;;;;5001150;28;20879;-47
2021/12/19 12:22:25;;;;;;;13.97;8.60;;;8.80;78.80;;;;;;4986221;28;20468;-47
2021/12/19 12:25:30;;;;;;;13.27;8.67;;;8.80;79.00;;;;;;5000929;28;20508;-47
2021/12/19 12:28:04;;;;;;;15.57;9.07;;;8.80;78.70;;;;;;5001588;28;20528;-47
2021/12/19 12:30:35;;;;;;;14.27;9.40;;;8.90;78.90;;;;;;5004707;28;20975;-47
2021/12/19 12:33:06;;;;;;;12.47;7.57;;;8.90;79.10;;;;;;5000039;28;20809;-47
2021/12/19 12:35:36;;;;;;;15.73;9.50;;;9.00;77.80;;;;;;4979372;28;20469;-47
2021/12/19 12:38:05;;;;;;;13.10;8.97;;;9.00;77.50;;;;;;4994940;28;20473;-47
2021/12/19 12:43:14;;;;;;;14.63;9.73;;;9.00;77.70;;;;;;5002554;28;20464;-47
2021/12/19 12:45:56;;;;;;;17.03;9.10;;;9.00;77.70;;;;;;5001051;28;21037;-47
2021/12/19 12:48:27;;;;;;;14.90;9.03;;;9.10;78.10;;;;;;5001976;28;20461;-46
2021/12/19 12:50:54;;;;;;;14.83;8.53;;;9.10;78.10;;;;;;5001176;28;20452;-46
2021/12/19 12:53:36;;;;;;;17.47;8.83;;;9.10;77.90;;;;;;4985171;28;20965;-47
2021/12/19 12:56:09;;;;;;;12.87;8.63;;;9.10;77.60;;;;;;4989809;28;20483;-46
2021/12/19 12:58:38;;;;;;;17.10;10.13;;;9.10;77.40;;;;;;5001894;28;20482;-46
2021/12/19 13:01:16;;;;;;;13.13;8.60;;;9.10;77.10;;;;;;4984089;28;20457;-47
2021/12/19 13:04:01;;;;;;;13.77;9.37;;;9.10;77.40;;;;;;4983638;28;20456;-47
2021/12/19 13:06:48;;;;;;;12.60;7.90;;;9.10;77.30;;;;;;5000320;28;20454;-47
2021/12/19 13:09:25;;;;;;;13.83;9.40;;;9.10;77.00;;;;;;5001509;28;20518;-47
2021/12/19 13:11:57;;;;;;;13.80;9.77;;;9.10;76.60;;;;;;4986525;28;20518;-47
2021/12/19 13:14:27;;;;;;;14.40;8.33;;;9.00;77.00;;;;;;4972060;28;20468;-47
2021/12/19 13:17:17;;;;;;;17.53;8.60;;;9.00;77.40;;;;;;5004316;28;20456;-46
2021/12/19 13:20:11;;;;;;;13.57;8.40;;;9.00;77.40;;;;;;4945759;28;20461;-47
2021/12/19 13:22:43;;;;;;;18.27;10.00;;;9.00;77.20;;;;;;4973928;28;20962;-46
2021/12/19 13:25:15;;;;;;;15.33;9.83;;;8.90;76.90;;;;;;4999420;28;20496;-47
2021/12/19 13:27:51;;;;;;;15.77;9.63;;;8.90;77.30;;;;;;4999273;28;20958;-47
2021/12/19 13:30:29;;;;;;;15.73;10.60;;;8.80;77.80;;;;;;5000818;28;20449;-47
2021/12/19 13:33:04;;;;;;;14.27;10.40;;;8.80;77.70;;;;;;4998363;28;20474;-46
2021/12/19 13:35:40;;;;;;;16.73;11.00;;;8.80;77.90;;;;;;4997945;28;20460;-46
2021/12/19 13:38:14;;;;;;;16.20;10.90;;;8.70;78.20;;;;;;4983529;28;20802;-47
2021/12/19 13:40:52;;;;;;;16.90;10.53;;;8.80;78.10;;;;;;4996080;28;20468;-47
2021/12/19 13:43:23;;;;;;;13.97;9.70;;;8.80;78.20;;;;;;4999767;28;20472;-48
2021/12/19 13:46:07;;;;;;;18.83;11.40;;;8.80;78.00;;;;;;4998188;28;20492;-48
2021/12/19 13:48:48;;;;;;;14.63;9.20;;;8.70;78.40;;;;;;4997874;28;20465;-48
2021/12/19 13:51:24;;;;;;;10.23;8.53;;;8.70;78.00;;;;;;4999155;28;20468;-48
2021/12/19 13:53:56;;;;;;;9.30;7.20;;;8.70;77.90;;;;;;4998942;28;20453;-46
2021/12/19 13:56:27;;;;;;;9.70;6.17;;;8.70;77.00;;;;;;4988539;28;20460;-46
2021/12/19 13:58:56;;;;;;;7.60;6.60;;;8.70;76.50;;;;;;5003047;28;20480;-46
2021/12/19 14:01:24;;;;;;;7.00;6.30;;;8.60;76.50;;;;;;5002056;28;20828;-46
2021/12/19 14:03:54;;;;;;;8.70;6.60;;;8.60;76.70;;;;;;5000756;28;20456;-46
2021/12/19 14:06:31;;;;;;;8.07;6.50;;;8.50;76.30;;;;;;4995488;28;20589;-46
2021/12/19 14:09:04;;;;;;;11.00;6.90;;;8.50;76.60;;;;;;4999300;28;20464;-46
2021/12/19 14:11:31;;;;;;;8.90;7.40;;;8.50;76.90;;;;;;4995193;28;20471;-46
2021/12/19 14:14:10;;;;;;;7.87;6.50;;;8.50;76.50;;;;;;4998922;28;20834;-46
2021/12/19 14:16:45;;;;;;;7.17;5.70;;;8.40;77.10;;;;;;4999455;28;20468;-46
2021/12/19 14:19:19;;;;;;;8.90;6.60;;;8.40;77.10;;;;;;4998673;28;21099;-46
2021/12/19 14:21:46;;;;;;;8.80;6.97;;;8.40;77.10;;;;;;4997733;28;20861;-46